sensor_id;sensor_type;location;lat;lon;timestamp;P1;durP1;ratioP1;P2;durP2;ratioP2
20185;SDS011;10252;48.792;8.582;2022-09-13T00:04:50;4.40;;;4.00;;
20185;SDS011;10252;48.792;8.582;2022-09-13T00:09:51;4.90;;;3.92;;
20185;SDS011;10252;48.792;8.582;2022-09-13T00:14:52;5.45;;;4.47;;
20185;SDS011;10252;48.792;8.582;2022-09-13T00:19:53;10.10;;;4.13;;
20185;SDS011;10252;48.792;8.582;2022-09-13T00:24:54;5.60;;;4.05;;
20185;SDS011;10252;48.792;8.582;2022-09-13T00:29:56;5.35;;;3.92;;
20185;SDS011;10252;48.792;8.582;2022-09-13T00:34:57;5.72;;;3.97;;
20185;SDS011;10252;48.792;8.582;2022-09-13T00:39:58;4.32;;;3.90;;
20185;SDS011;10252;48.792;8.582;2022-09-13T00:45:00;4.82;;;3.83;;
20185;SDS011;10252;48.792;8.582;2022-09-13T00:50:06;7.53;;;4.40;;
20185;SDS011;10252;48.792;8.582;2022-09-13T00:55:12;4.80;;;4.38;;
20185;SDS011;10252;48.792;8.582;2022-09-13T01:00:16;6.28;;;4.30;;
20185;SDS011;10252;48.792;8.582;2022-09-13T01:05:19;6.60;;;4.18;;
20185;SDS011;10252;48.792;8.582;2022-09-13T01:10:22;6.20;;;4.10;;
20185;SDS011;10252;48.792;8.582;2022-09-13T01:15:23;4.20;;;3.78;;
20185;SDS011;10252;48.792;8.582;2022-09-13T01:20:26;4.03;;;3.63;;
20185;SDS011;10252;48.792;8.582;2022-09-13T01:25:38;4.80;;;4.10;;
20185;SDS011;10252;48.792;8.582;2022-09-13T01:30:44;5.25;;;4.20;;
20185;SDS011;10252;48.792;8.582;2022-09-13T01:46:06;4.75;;;3.70;;
20185;SDS011;10252;48.792;8.582;2022-09-13T01:51:15;4.50;;;3.90;;
20185;SDS011;10252;48.792;8.582;2022-09-13T01:56:27;7.18;;;4.32;;
20185;SDS011;10252;48.792;8.582;2022-09-13T02:01:32;5.10;;;3.53;;
20185;SDS011;10252;48.792;8.582;2022-09-13T02:06:40;5.22;;;3.78;;
20185;SDS011;10252;48.792;8.582;2022-09-13T02:11:45;7.78;;;3.70;;
20185;SDS011;10252;48.792;8.582;2022-09-13T02:21:53;5.50;;;3.28;;
20185;SDS011;10252;48.792;8.582;2022-09-13T02:26:57;4.32;;;3.75;;
20185;SDS011;10252;48.792;8.582;2022-09-13T02:32:02;5.75;;;3.53;;
20185;SDS011;10252;48.792;8.582;2022-09-13T02:37:06;5.82;;;3.28;;
20185;SDS011;10252;48.792;8.582;2022-09-13T02:42:14;3.90;;;3.38;;
20185;SDS011;10252;48.792;8.582;2022-09-13T02:57:47;3.70;;;3.35;;
20185;SDS011;10252;48.792;8.582;2022-09-13T03:02:50;3.92;;;3.17;;
20185;SDS011;10252;48.792;8.582;2022-09-13T03:07:53;3.22;;;2.92;;
20185;SDS011;10252;48.792;8.582;2022-09-13T03:23:08;3.28;;;2.97;;
20185;SDS011;10252;48.792;8.582;2022-09-13T03:33:32;4.28;;;3.78;;
20185;SDS011;10252;48.792;8.582;2022-09-13T03:38:38;3.72;;;2.83;;
20185;SDS011;10252;48.792;8.582;2022-09-13T03:43:43;4.85;;;3.15;;
20185;SDS011;10252;48.792;8.582;2022-09-13T03:48:45;4.78;;;3.70;;
20185;SDS011;10252;48.792;8.582;2022-09-13T03:53:58;5.47;;;3.28;;
20185;SDS011;10252;48.792;8.582;2022-09-13T03:59:00;4.03;;;3.25;;
20185;SDS011;10252;48.792;8.582;2022-09-13T04:04:01;4.05;;;2.97;;
20185;SDS011;10252;48.792;8.582;2022-09-13T04:09:02;3.85;;;3.15;;
20185;SDS011;10252;48.792;8.582;2022-09-13T04:14:03;3.92;;;3.20;;
20185;SDS011;10252;48.792;8.582;2022-09-13T04:19:04;5.40;;;3.20;;
20185;SDS011;10252;48.792;8.582;2022-09-13T04:24:05;3.53;;;3.22;;
20185;SDS011;10252;48.792;8.582;2022-09-13T04:29:06;4.03;;;2.92;;
20185;SDS011;10252;48.792;8.582;2022-09-13T04:34:07;4.95;;;4.45;;
20185;SDS011;10252;48.792;8.582;2022-09-13T04:39:09;5.35;;;3.30;;
20185;SDS011;10252;48.792;8.582;2022-09-13T04:44:10;3.70;;;3.03;;
20185;SDS011;10252;48.792;8.582;2022-09-13T04:49:12;5.38;;;3.42;;
20185;SDS011;10252;48.792;8.582;2022-09-13T04:54:13;3.35;;;3.05;;
20185;SDS011;10252;48.792;8.582;2022-09-13T04:59:14;3.85;;;3.10;;
20185;SDS011;10252;48.792;8.582;2022-09-13T05:04:15;4.47;;;3.47;;
20185;SDS011;10252;48.792;8.582;2022-09-13T05:09:17;3.80;;;3.22;;
20185;SDS011;10252;48.792;8.582;2022-09-13T05:14:18;3.30;;;3.00;;
20185;SDS011;10252;48.792;8.582;2022-09-13T05:19:19;3.63;;;3.17;;
20185;SDS011;10252;48.792;8.582;2022-09-13T05:24:20;3.20;;;2.90;;
20185;SDS011;10252;48.792;8.582;2022-09-13T05:29:21;3.35;;;3.00;;
20185;SDS011;10252;48.792;8.582;2022-09-13T05:34:22;3.85;;;2.80;;
20185;SDS011;10252;48.792;8.582;2022-09-13T05:39:23;3.15;;;2.88;;
20185;SDS011;10252;48.792;8.582;2022-09-13T05:44:24;2.92;;;2.42;;
20185;SDS011;10252;48.792;8.582;2022-09-13T05:49:25;6.32;;;2.95;;
20185;SDS011;10252;48.792;8.582;2022-09-13T05:54:26;3.65;;;2.88;;
20185;SDS011;10252;48.792;8.582;2022-09-13T05:59:28;5.40;;;3.00;;
20185;SDS011;10252;48.792;8.582;2022-09-13T06:04:29;4.25;;;3.05;;
20185;SDS011;10252;48.792;8.582;2022-09-13T06:09:30;3.15;;;2.85;;
20185;SDS011;10252;48.792;8.582;2022-09-13T06:14:31;5.63;;;2.85;;
20185;SDS011;10252;48.792;8.582;2022-09-13T06:19:32;3.50;;;3.10;;
20185;SDS011;10252;48.792;8.582;2022-09-13T06:24:33;5.35;;;2.70;;
20185;SDS011;10252;48.792;8.582;2022-09-13T06:29:36;3.00;;;2.70;;
20185;SDS011;10252;48.792;8.582;2022-09-13T06:34:37;4.82;;;2.53;;
20185;SDS011;10252;48.792;8.582;2022-09-13T06:39:38;3.28;;;2.10;;
20185;SDS011;10252;48.792;8.582;2022-09-13T06:44:40;2.88;;;2.35;;
20185;SDS011;10252;48.792;8.582;2022-09-13T06:49:41;3.33;;;2.35;;
20185;SDS011;10252;48.792;8.582;2022-09-13T06:54:42;2.70;;;2.05;;
20185;SDS011;10252;48.792;8.582;2022-09-13T06:59:43;3.42;;;2.00;;
20185;SDS011;10252;48.792;8.582;2022-09-13T07:04:44;2.92;;;2.58;;
20185;SDS011;10252;48.792;8.582;2022-09-13T07:09:45;4.13;;;3.00;;
20185;SDS011;10252;48.792;8.582;2022-09-13T07:14:46;3.10;;;2.22;;
20185;SDS011;10252;48.792;8.582;2022-09-13T07:19:47;2.25;;;2.05;;
20185;SDS011;10252;48.792;8.582;2022-09-13T07:24:48;2.25;;;1.83;;
20185;SDS011;10252;48.792;8.582;2022-09-13T07:29:49;4.38;;;2.13;;
20185;SDS011;10252;48.792;8.582;2022-09-13T07:34:50;3.05;;;2.08;;
20185;SDS011;10252;48.792;8.582;2022-09-13T07:39:51;3.45;;;1.75;;
20185;SDS011;10252;48.792;8.582;2022-09-13T07:44:52;1.83;;;1.73;;
20185;SDS011;10252;48.792;8.582;2022-09-13T07:49:53;1.85;;;1.50;;
20185;SDS011;10252;48.792;8.582;2022-09-13T07:54:54;2.80;;;1.30;;
20185;SDS011;10252;48.792;8.582;2022-09-13T07:59:55;2.40;;;1.50;;
20185;SDS011;10252;48.792;8.582;2022-09-13T08:04:56;1.67;;;1.10;;
20185;SDS011;10252;48.792;8.582;2022-09-13T08:09:58;1.98;;;1.20;;
20185;SDS011;10252;48.792;8.582;2022-09-13T08:14:59;2.80;;;1.20;;
20185;SDS011;10252;48.792;8.582;2022-09-13T08:20:00;4.43;;;1.50;;
20185;SDS011;10252;48.792;8.582;2022-09-13T08:25:01;2.33;;;1.30;;
20185;SDS011;10252;48.792;8.582;2022-09-13T08:30:02;1.83;;;1.33;;
20185;SDS011;10252;48.792;8.582;2022-09-13T08:35:04;1.20;;;1.10;;
20185;SDS011;10252;48.792;8.582;2022-09-13T08:40:05;1.65;;;1.30;;
20185;SDS011;10252;48.792;8.582;2022-09-13T08:45:06;1.60;;;1.40;;
20185;SDS011;10252;48.792;8.582;2022-09-13T09:00:30;1.27;;;1.00;;
20185;SDS011;10252;48.792;8.582;2022-09-13T09:05:56;3.05;;;1.42;;
20185;SDS011;10252;48.792;8.582;2022-09-13T09:10:57;1.40;;;1.00;;
20185;SDS011;10252;48.792;8.582;2022-09-13T09:16:00;1.00;;;0.95;;
20185;SDS011;10252;48.792;8.582;2022-09-13T09:21:02;1.17;;;1.05;;
20185;SDS011;10252;48.792;8.582;2022-09-13T09:26:26;1.08;;;1.00;;
20185;SDS011;10252;48.792;8.582;2022-09-13T09:42:01;2.38;;;1.00;;
20185;SDS011;10252;48.792;8.582;2022-09-13T09:47:04;3.22;;;1.10;;
20185;SDS011;10252;48.792;8.582;2022-09-13T09:52:08;0.57;;;0.57;;
20185;SDS011;10252;48.792;8.582;2022-09-13T09:57:10;1.90;;;0.82;;
20185;SDS011;10252;48.792;8.582;2022-09-13T10:02:16;0.75;;;0.75;;
20185;SDS011;10252;48.792;8.582;2022-09-13T10:07:23;2.35;;;0.90;;
20185;SDS011;10252;48.792;8.582;2022-09-13T10:12:26;1.40;;;0.88;;
20185;SDS011;10252;48.792;8.582;2022-09-13T10:17:28;1.05;;;0.77;;
20185;SDS011;10252;48.792;8.582;2022-09-13T10:22:30;2.63;;;0.80;;
20185;SDS011;10252;48.792;8.582;2022-09-13T10:27:33;0.98;;;0.90;;
20185;SDS011;10252;48.792;8.582;2022-09-13T10:32:35;0.73;;;0.70;;
20185;SDS011;10252;48.792;8.582;2022-09-13T10:37:36;2.00;;;0.60;;
20185;SDS011;10252;48.792;8.582;2022-09-13T10:42:40;2.60;;;0.93;;
20185;SDS011;10252;48.792;8.582;2022-09-13T10:47:51;0.70;;;0.70;;
20185;SDS011;10252;48.792;8.582;2022-09-13T10:52:54;2.30;;;1.00;;
20185;SDS011;10252;48.792;8.582;2022-09-13T11:03:49;2.25;;;1.10;;
20185;SDS011;10252;48.792;8.582;2022-09-13T11:13:49;2.05;;;1.65;;
20185;SDS011;10252;48.792;8.582;2022-09-13T11:24:21;2.45;;;1.80;;
20185;SDS011;10252;48.792;8.582;2022-09-13T11:29:32;1.63;;;1.10;;
20185;SDS011;10252;48.792;8.582;2022-09-13T11:34:55;1.63;;;1.35;;
20185;SDS011;10252;48.792;8.582;2022-09-13T11:40:19;2.60;;;1.20;;
20185;SDS011;10252;48.792;8.582;2022-09-13T11:45:29;2.85;;;1.25;;
20185;SDS011;10252;48.792;8.582;2022-09-13T11:55:33;1.35;;;1.20;;
20185;SDS011;10252;48.792;8.582;2022-09-13T12:00:39;2.33;;;1.40;;
20185;SDS011;10252;48.792;8.582;2022-09-13T12:05:46;6.40;;;1.65;;
20185;SDS011;10252;48.792;8.582;2022-09-13T12:10:55;1.58;;;1.40;;
20185;SDS011;10252;48.792;8.582;2022-09-13T12:16:08;1.52;;;1.33;;
20185;SDS011;10252;48.792;8.582;2022-09-13T12:21:10;2.55;;;1.35;;
20185;SDS011;10252;48.792;8.582;2022-09-13T12:31:23;2.03;;;1.50;;
20185;SDS011;10252;48.792;8.582;2022-09-13T12:36:32;5.82;;;1.60;;
20185;SDS011;10252;48.792;8.582;2022-09-13T12:57:33;2.95;;;1.50;;
20185;SDS011;10252;48.792;8.582;2022-09-13T13:02:40;3.40;;;1.40;;
20185;SDS011;10252;48.792;8.582;2022-09-13T13:07:48;4.03;;;0.95;;
20185;SDS011;10252;48.792;8.582;2022-09-13T13:12:50;3.95;;;1.40;;
20185;SDS011;10252;48.792;8.582;2022-09-13T13:17:52;3.92;;;1.50;;
20185;SDS011;10252;48.792;8.582;2022-09-13T13:23:01;1.55;;;1.10;;
20185;SDS011;10252;48.792;8.582;2022-09-13T13:28:03;2.13;;;1.50;;
20185;SDS011;10252;48.792;8.582;2022-09-13T13:33:25;3.35;;;1.50;;
20185;SDS011;10252;48.792;8.582;2022-09-13T13:43:29;3.72;;;1.38;;
20185;SDS011;10252;48.792;8.582;2022-09-13T13:48:38;0.90;;;0.90;;
20185;SDS011;10252;48.792;8.582;2022-09-13T13:53:41;2.00;;;1.40;;
20185;SDS011;10252;48.792;8.582;2022-09-13T13:58:44;2.78;;;1.10;;
20185;SDS011;10252;48.792;8.582;2022-09-13T14:09:10;0.93;;;0.88;;
20185;SDS011;10252;48.792;8.582;2022-09-13T14:19:23;1.23;;;1.00;;
20185;SDS011;10252;48.792;8.582;2022-09-13T14:24:24;3.35;;;1.30;;
20185;SDS011;10252;48.792;8.582;2022-09-13T14:29:25;2.03;;;0.98;;
20185;SDS011;10252;48.792;8.582;2022-09-13T14:34:34;2.22;;;1.10;;
20185;SDS011;10252;48.792;8.582;2022-09-13T14:39:36;1.50;;;1.15;;
20185;SDS011;10252;48.792;8.582;2022-09-13T14:44:42;2.58;;;1.00;;
20185;SDS011;10252;48.792;8.582;2022-09-13T14:49:45;1.38;;;1.00;;
20185;SDS011;10252;48.792;8.582;2022-09-13T14:54:47;2.63;;;1.27;;
20185;SDS011;10252;48.792;8.582;2022-09-13T14:59:52;1.98;;;1.10;;
20185;SDS011;10252;48.792;8.582;2022-09-13T15:04:59;1.20;;;0.95;;
20185;SDS011;10252;48.792;8.582;2022-09-13T15:25:54;1.40;;;0.90;;
20185;SDS011;10252;48.792;8.582;2022-09-13T15:30:56;1.65;;;1.25;;
20185;SDS011;10252;48.792;8.582;2022-09-13T15:41:18;2.25;;;1.10;;
20185;SDS011;10252;48.792;8.582;2022-09-13T15:46:19;1.00;;;0.98;;
20185;SDS011;10252;48.792;8.582;2022-09-13T15:51:20;1.65;;;1.00;;
20185;SDS011;10252;48.792;8.582;2022-09-13T15:56:31;1.48;;;0.90;;
20185;SDS011;10252;48.792;8.582;2022-09-13T16:01:34;1.65;;;1.00;;
20185;SDS011;10252;48.792;8.582;2022-09-13T16:06:35;2.00;;;1.00;;
20185;SDS011;10252;48.792;8.582;2022-09-13T16:11:36;0.98;;;0.98;;
20185;SDS011;10252;48.792;8.582;2022-09-13T16:16:37;0.95;;;0.80;;
20185;SDS011;10252;48.792;8.582;2022-09-13T16:21:41;0.90;;;0.80;;
20185;SDS011;10252;48.792;8.582;2022-09-13T16:26:42;5.32;;;1.05;;
20185;SDS011;10252;48.792;8.582;2022-09-13T16:31:43;5.40;;;1.40;;
20185;SDS011;10252;48.792;8.582;2022-09-13T16:36:44;2.22;;;1.00;;
20185;SDS011;10252;48.792;8.582;2022-09-13T16:41:45;2.42;;;0.93;;
20185;SDS011;10252;48.792;8.582;2022-09-13T16:46:47;2.33;;;1.00;;
20185;SDS011;10252;48.792;8.582;2022-09-13T16:51:48;2.17;;;1.00;;
20185;SDS011;10252;48.792;8.582;2022-09-13T16:56:49;2.08;;;1.23;;
20185;SDS011;10252;48.792;8.582;2022-09-13T17:01:50;2.00;;;1.10;;
20185;SDS011;10252;48.792;8.582;2022-09-13T17:06:51;2.28;;;0.90;;
20185;SDS011;10252;48.792;8.582;2022-09-13T17:11:53;2.00;;;1.05;;
20185;SDS011;10252;48.792;8.582;2022-09-13T17:16:55;3.35;;;1.10;;
20185;SDS011;10252;48.792;8.582;2022-09-13T17:21:56;1.70;;;1.00;;
20185;SDS011;10252;48.792;8.582;2022-09-13T17:26:57;1.77;;;1.67;;
20185;SDS011;10252;48.792;8.582;2022-09-13T17:31:59;1.42;;;1.20;;
20185;SDS011;10252;48.792;8.582;2022-09-13T17:37:00;3.40;;;1.55;;
20185;SDS011;10252;48.792;8.582;2022-09-13T17:42:02;2.90;;;1.58;;
20185;SDS011;10252;48.792;8.582;2022-09-13T17:47:03;2.22;;;1.52;;
20185;SDS011;10252;48.792;8.582;2022-09-13T17:52:05;4.05;;;1.17;;
20185;SDS011;10252;48.792;8.582;2022-09-13T17:57:07;2.88;;;1.33;;
20185;SDS011;10252;48.792;8.582;2022-09-13T18:02:10;2.13;;;1.15;;
20185;SDS011;10252;48.792;8.582;2022-09-13T18:07:11;2.33;;;1.50;;
20185;SDS011;10252;48.792;8.582;2022-09-13T18:12:13;2.72;;;1.30;;
20185;SDS011;10252;48.792;8.582;2022-09-13T18:17:14;3.08;;;1.60;;
20185;SDS011;10252;48.792;8.582;2022-09-13T18:22:15;3.40;;;1.40;;
20185;SDS011;10252;48.792;8.582;2022-09-13T18:27:16;2.88;;;1.63;;
20185;SDS011;10252;48.792;8.582;2022-09-13T18:32:17;2.10;;;1.63;;
20185;SDS011;10252;48.792;8.582;2022-09-13T18:37:18;4.57;;;1.55;;
20185;SDS011;10252;48.792;8.582;2022-09-13T18:42:19;2.25;;;1.50;;
20185;SDS011;10252;48.792;8.582;2022-09-13T18:47:20;1.40;;;1.15;;
20185;SDS011;10252;48.792;8.582;2022-09-13T18:52:21;2.28;;;1.50;;
20185;SDS011;10252;48.792;8.582;2022-09-13T18:57:23;2.75;;;1.40;;
20185;SDS011;10252;48.792;8.582;2022-09-13T19:02:24;2.50;;;1.30;;
20185;SDS011;10252;48.792;8.582;2022-09-13T19:07:25;2.22;;;1.25;;
20185;SDS011;10252;48.792;8.582;2022-09-13T19:12:26;4.65;;;1.80;;
20185;SDS011;10252;48.792;8.582;2022-09-13T19:17:27;1.80;;;1.20;;
20185;SDS011;10252;48.792;8.582;2022-09-13T19:22:28;3.50;;;1.60;;
20185;SDS011;10252;48.792;8.582;2022-09-13T19:27:29;4.32;;;1.30;;
20185;SDS011;10252;48.792;8.582;2022-09-13T19:32:30;4.75;;;1.77;;
20185;SDS011;10252;48.792;8.582;2022-09-13T19:37:32;3.22;;;1.67;;
20185;SDS011;10252;48.792;8.582;2022-09-13T19:42:33;3.08;;;1.50;;
20185;SDS011;10252;48.792;8.582;2022-09-13T19:47:34;4.05;;;1.70;;
20185;SDS011;10252;48.792;8.582;2022-09-13T19:52:35;3.47;;;1.67;;
20185;SDS011;10252;48.792;8.582;2022-09-13T19:57:36;3.10;;;1.52;;
20185;SDS011;10252;48.792;8.582;2022-09-13T20:02:38;4.13;;;1.95;;
20185;SDS011;10252;48.792;8.582;2022-09-13T20:07:39;2.65;;;1.55;;
20185;SDS011;10252;48.792;8.582;2022-09-13T20:12:43;4.88;;;1.85;;
20185;SDS011;10252;48.792;8.582;2022-09-13T20:17:44;4.60;;;1.80;;
20185;SDS011;10252;48.792;8.582;2022-09-13T20:22:45;3.20;;;1.85;;
20185;SDS011;10252;48.792;8.582;2022-09-13T20:27:46;3.92;;;1.60;;
20185;SDS011;10252;48.792;8.582;2022-09-13T20:32:47;2.55;;;1.42;;
20185;SDS011;10252;48.792;8.582;2022-09-13T20:37:53;2.40;;;1.80;;
20185;SDS011;10252;48.792;8.582;2022-09-13T20:42:54;2.08;;;1.48;;
20185;SDS011;10252;48.792;8.582;2022-09-13T20:47:55;6.07;;;2.10;;
20185;SDS011;10252;48.792;8.582;2022-09-13T20:52:57;2.38;;;1.60;;
20185;SDS011;10252;48.792;8.582;2022-09-13T20:57:59;3.45;;;1.60;;
20185;SDS011;10252;48.792;8.582;2022-09-13T21:03:00;3.83;;;2.00;;
20185;SDS011;10252;48.792;8.582;2022-09-13T21:08:02;1.80;;;1.50;;
20185;SDS011;10252;48.792;8.582;2022-09-13T21:13:22;3.42;;;1.70;;
20185;SDS011;10252;48.792;8.582;2022-09-13T21:18:23;3.45;;;1.95;;
20185;SDS011;10252;48.792;8.582;2022-09-13T21:23:24;4.28;;;1.80;;
20185;SDS011;10252;48.792;8.582;2022-09-13T21:28:25;4.68;;;1.88;;
20185;SDS011;10252;48.792;8.582;2022-09-13T21:33:26;5.15;;;1.70;;
20185;SDS011;10252;48.792;8.582;2022-09-13T21:38:28;2.53;;;2.10;;
20185;SDS011;10252;48.792;8.582;2022-09-13T21:43:30;2.78;;;1.70;;
20185;SDS011;10252;48.792;8.582;2022-09-13T21:48:32;2.78;;;1.67;;
20185;SDS011;10252;48.792;8.582;2022-09-13T21:53:35;3.45;;;1.58;;
20185;SDS011;10252;48.792;8.582;2022-09-13T21:58:37;2.85;;;1.60;;
20185;SDS011;10252;48.792;8.582;2022-09-13T22:03:39;2.38;;;1.65;;
20185;SDS011;10252;48.792;8.582;2022-09-13T22:08:51;3.97;;;2.05;;
20185;SDS011;10252;48.792;8.582;2022-09-13T22:13:52;3.50;;;1.80;;
20185;SDS011;10252;48.792;8.582;2022-09-13T22:18:55;3.20;;;1.73;;
20185;SDS011;10252;48.792;8.582;2022-09-13T22:23:56;5.75;;;2.03;;
20185;SDS011;10252;48.792;8.582;2022-09-13T22:28:58;2.22;;;1.55;;
20185;SDS011;10252;48.792;8.582;2022-09-13T22:33:59;1.90;;;1.70;;
20185;SDS011;10252;48.792;8.582;2022-09-13T22:39:00;2.47;;;1.67;;
20185;SDS011;10252;48.792;8.582;2022-09-13T22:44:02;2.90;;;1.90;;
20185;SDS011;10252;48.792;8.582;2022-09-13T22:49:03;2.38;;;1.98;;
20185;SDS011;10252;48.792;8.582;2022-09-13T22:54:05;2.47;;;1.90;;
20185;SDS011;10252;48.792;8.582;2022-09-13T22:59:09;1.77;;;1.45;;
20185;SDS011;10252;48.792;8.582;2022-09-13T23:04:11;2.33;;;2.13;;
20185;SDS011;10252;48.792;8.582;2022-09-13T23:09:14;2.33;;;1.60;;
20185;SDS011;10252;48.792;8.582;2022-09-13T23:14:16;5.63;;;1.80;;
20185;SDS011;10252;48.792;8.582;2022-09-13T23:19:19;2.75;;;1.80;;
20185;SDS011;10252;48.792;8.582;2022-09-13T23:24:21;2.67;;;1.85;;
20185;SDS011;10252;48.792;8.582;2022-09-13T23:29:23;3.15;;;1.90;;
20185;SDS011;10252;48.792;8.582;2022-09-13T23:34:24;4.38;;;1.83;;
20185;SDS011;10252;48.792;8.582;2022-09-13T23:39:25;3.25;;;2.10;;
20185;SDS011;10252;48.792;8.582;2022-09-13T23:44:26;2.40;;;1.90;;
20185;SDS011;10252;48.792;8.582;2022-09-13T23:49:28;4.00;;;1.80;;
20185;SDS011;10252;48.792;8.582;2022-09-13T23:54:29;3.20;;;1.90;;
20185;SDS011;10252;48.792;8.582;2022-09-13T23:59:30;1.95;;;1.70;;
